Главная страница
METAR-TAF:

METAR-TAF

Аэропорты :

Wekweeti, Северо-Западные Территории, Канада

широта: 64-11-27N, долгота: 114-04-36W, высота над уровнем моря: 368 м

Текущие метеонаблюдения

Эта сводка был подготовлена 16 минут назад, в 12:00 UTC
Ветер 6 Узел от южный-юго-западный
Температура 13°C
Влажность 77%
Давление 1013 hPa
Видимость: 14.5 км
небольшая облачность на высоте 11000 фута

METAR: CYWE 191200Z AUTO 20006KT 9SM FEW110 13/09 A2991 RMK SLP141 DENSITY ALT 1300FT

Время: 06:16 (12:16 UTC)

Прогноз

Эта сводка был подготовлена 17 часа и 38 минут назад, в 18:38 UTC
Прогноз действительный с 18-го 19 UTC до 19-го 01 UTC
Ветер 5 Узел от восточный
Видимость: 10 км
Рассеянная облачность на высоте 20000 фута
С 18-го 2300 UTC
Ветер 3 Узел переменных направлений
Видимость: 10 км
Отдельные облака на высоте 8000 фута
Рассеянная облачность на высоте 16000 фута

TAF: CYWE 181838Z 1819/1901 09005KT P6SM BKN200 FM182300 VRB03KT P6SM SCT080 BKN160 RMK FCST BASED ON AUTO OBS. NXT FCST WILL BE ISSUED AT 191245Z

Метеонаблюдения и прогнозы для более 4000 аэропортов (сводки METAR и TAF).

Имеющиеся станции представлены на карте желтыми и красными точками.

Чтобы увидеть название станции, наведите на нее мышь.

Затем щелкните, чтобы увидеть метеонаблюдения и метеопрогнозы.

Управление картой: чтобы увеличить масштаб, щелкните зеленые кнопки с черным крестиком; чтобы уменьшить масштаб, щелкните зеленую кнопку с тире; для просмотра соседних карт щелкайте зеленые стрелки.


METAR-TAF: